createdAt,value
2023-04-07T00:02:30.744Z,7.57
2023-04-07T00:05:33.574Z,7.57
2023-04-07T00:08:42.471Z,7.57
2023-04-07T00:11:45.047Z,7.56
2023-04-07T00:14:47.566Z,7.55
2023-04-07T00:17:50.206Z,7.52
2023-04-07T00:20:52.724Z,7.47
2023-04-07T00:23:55.656Z,7.44
2023-04-07T00:26:58.524Z,7.41
2023-04-07T00:30:01.344Z,7.38
2023-04-07T00:33:03.898Z,7.33
2023-04-07T00:36:08.878Z,7.29
2023-04-07T00:39:11.441Z,7.27
2023-04-07T00:42:14.214Z,7.25
2023-04-07T00:45:16.813Z,7.22
2023-04-07T00:48:20.357Z,7.16
2023-04-07T00:51:23.032Z,7.10
2023-04-07T00:54:25.929Z,7.07
2023-04-07T00:57:28.826Z,7.02
2023-04-07T01:00:35.830Z,6.97
2023-04-07T01:03:49.467Z,6.93
2023-04-07T01:06:59.141Z,6.90
2023-04-07T01:10:12.615Z,6.89
2023-04-07T01:13:28.864Z,6.87
2023-04-07T01:16:37.880Z,6.84
2023-04-07T01:20:05.346Z,6.80
2023-04-07T01:23:08.772Z,6.77
2023-04-07T01:26:20.392Z,6.74
2023-04-07T01:29:37.819Z,6.72
2023-04-07T01:32:44.016Z,6.71
2023-04-07T01:35:46.959Z,6.70
2023-04-07T01:38:51.785Z,6.69
2023-04-07T01:41:56.249Z,6.68
2023-04-07T01:45:00.892Z,6.66
2023-04-07T01:48:07.756Z,6.65
2023-04-07T01:51:12.100Z,6.65
2023-04-07T01:54:14.975Z,6.66
2023-04-07T01:57:17.649Z,6.66
2023-04-07T02:00:20.278Z,6.65
2023-04-07T02:03:43.352Z,6.66
2023-04-07T02:06:53.154Z,6.65
2023-04-07T02:10:00.685Z,6.60
2023-04-07T02:13:09.193Z,6.65
2023-04-07T02:16:12.800Z,6.65
2023-04-07T02:19:15.595Z,6.65
2023-04-07T02:22:18.986Z,6.65
2023-04-07T02:25:32.468Z,6.66
2023-04-07T02:28:35.593Z,6.67
2023-04-07T02:31:38.215Z,6.68
2023-04-07T02:34:42.094Z,6.69
2023-04-07T02:37:45.906Z,6.70
2023-04-07T02:40:50.424Z,6.70
2023-04-07T02:43:53.658Z,6.69
2023-04-07T02:46:56.777Z,6.67
2023-04-07T02:49:59.542Z,6.65
2023-04-07T02:53:02.122Z,6.64
2023-04-07T02:56:04.830Z,6.64
2023-04-07T02:59:07.914Z,6.64
2023-04-07T03:02:10.798Z,6.63
2023-04-07T03:05:13.558Z,6.61
2023-04-07T03:08:16.221Z,6.61
2023-04-07T03:11:18.834Z,6.61
2023-04-07T03:14:21.500Z,6.61
2023-04-07T03:17:24.110Z,6.59
2023-04-07T03:20:27.288Z,6.57
2023-04-07T03:23:29.962Z,6.57
2023-04-07T03:26:33.180Z,6.56
2023-04-07T03:29:36.499Z,6.56
2023-04-07T03:32:39.078Z,6.55
2023-04-07T03:35:42.964Z,6.54
2023-04-07T03:38:47.782Z,6.53
2023-04-07T03:41:50.355Z,6.54
2023-04-07T03:44:53.467Z,6.54
2023-04-07T03:47:56.324Z,6.55
2023-04-07T03:50:59.932Z,6.56
2023-04-07T03:54:02.807Z,6.56
2023-04-07T03:57:05.517Z,6.57
2023-04-07T04:00:09.289Z,6.58
2023-04-07T04:03:12.194Z,6.59
2023-04-07T04:06:14.760Z,6.58
2023-04-07T04:09:17.608Z,6.59
2023-04-07T04:12:20.189Z,6.58
2023-04-07T04:15:22.964Z,6.57
2023-04-07T04:18:25.911Z,6.55
2023-04-07T04:21:28.555Z,6.54
2023-04-07T04:24:31.156Z,6.54
2023-04-07T04:27:33.698Z,6.52
2023-04-07T04:30:36.410Z,6.51
2023-04-07T04:33:39.030Z,6.49
2023-04-07T04:36:41.697Z,6.49
2023-04-07T04:39:44.342Z,6.49
2023-04-07T04:42:47.006Z,6.49
2023-04-07T04:45:51.922Z,6.48
2023-04-07T04:48:54.545Z,6.47
2023-04-07T04:51:57.289Z,6.46
2023-04-07T04:54:59.999Z,6.47
2023-04-07T04:58:02.848Z,6.46
2023-04-07T05:01:05.750Z,6.47
2023-04-07T05:04:10.485Z,6.48
2023-04-07T05:07:13.488Z,6.47
2023-04-07T05:10:16.237Z,6.47
2023-04-07T05:13:18.788Z,6.48
2023-04-07T05:16:21.480Z,6.47
2023-04-07T05:19:24.269Z,6.49
2023-04-07T05:22:26.886Z,6.50
2023-04-07T05:25:29.575Z,6.50
2023-04-07T05:28:32.181Z,6.53
2023-04-07T05:31:37.520Z,6.55
2023-04-07T05:34:41.303Z,6.56
2023-04-07T05:37:43.899Z,6.57
2023-04-07T05:40:47.509Z,6.58
2023-04-07T05:43:50.430Z,6.58
2023-04-07T05:46:53.274Z,6.58
2023-04-07T05:49:56.255Z,6.57
2023-04-07T05:52:58.780Z,6.57
2023-04-07T05:56:01.561Z,6.56
2023-04-07T05:59:04.198Z,6.55
2023-04-07T06:02:07.814Z,6.57
2023-04-07T06:05:10.616Z,6.57
2023-04-07T06:08:13.346Z,6.59
2023-04-07T06:11:15.936Z,6.59
2023-04-07T06:14:18.630Z,6.61
2023-04-07T06:17:21.423Z,6.61
2023-04-07T06:20:24.345Z,6.61
2023-04-07T06:23:27.347Z,6.62
2023-04-07T06:26:30.284Z,6.63
2023-04-07T06:29:33.903Z,6.66
2023-04-07T06:32:36.722Z,6.67
2023-04-07T06:35:43.105Z,6.70
2023-04-07T06:38:46.012Z,6.72
2023-04-07T06:41:48.574Z,6.74
2023-04-07T06:44:51.270Z,6.74
2023-04-07T06:47:53.841Z,6.78
2023-04-07T06:50:56.558Z,6.74
2023-04-07T06:53:59.138Z,6.81
2023-04-07T06:57:01.698Z,6.82
2023-04-07T07:00:07.919Z,6.83
2023-04-07T07:03:10.990Z,6.83
2023-04-07T07:06:13.735Z,6.82
2023-04-07T07:09:16.452Z,6.81
2023-04-07T07:12:19.262Z,6.84
2023-04-07T07:15:21.997Z,6.68
2023-04-07T07:18:24.783Z,6.82
2023-04-07T07:21:27.997Z,6.77
2023-04-07T07:24:31.204Z,6.72
2023-04-07T07:27:33.775Z,6.70
2023-04-07T07:30:36.550Z,6.67
2023-04-07T07:33:41.505Z,6.62
2023-04-07T07:36:44.252Z,6.60
2023-04-07T07:39:46.838Z,6.56
2023-04-07T07:42:49.421Z,6.57
2023-04-07T07:45:52.022Z,6.59
2023-04-07T07:48:54.577Z,6.58
2023-04-07T07:51:57.599Z,6.58
2023-04-07T07:55:00.278Z,6.57
2023-04-07T07:58:02.806Z,6.59
2023-04-07T08:01:05.798Z,6.59
2023-04-07T08:04:09.069Z,6.63
2023-04-07T08:07:12.157Z,6.64
2023-04-07T08:10:16.154Z,6.62
2023-04-07T08:13:18.767Z,6.61
2023-04-07T08:16:22.533Z,6.61
2023-04-07T08:19:25.344Z,6.61
2023-04-07T08:22:27.897Z,6.55
2023-04-07T08:25:33.525Z,6.50
2023-04-07T08:28:36.510Z,6.49
2023-04-07T08:31:39.333Z,6.49
2023-04-07T08:34:42.006Z,6.49
2023-04-07T08:37:44.696Z,6.50
2023-04-07T08:40:54.814Z,6.45
2023-04-07T08:43:58.273Z,6.44
2023-04-07T08:47:07.905Z,6.42
2023-04-07T08:50:11.827Z,6.38
2023-04-07T08:53:18.614Z,6.37
2023-04-07T08:56:22.019Z,6.40
2023-04-07T08:59:28.672Z,6.43
2023-04-07T09:02:33.871Z,6.29
2023-04-07T09:05:37.544Z,6.12
2023-04-07T09:08:41.009Z,5.94
2023-04-07T09:11:48.568Z,5.89
2023-04-07T09:14:51.173Z,5.93
2023-04-07T09:17:54.026Z,5.89
2023-04-07T09:21:05.140Z,5.84
2023-04-07T09:24:36.214Z,5.83
2023-04-07T09:27:38.903Z,5.81
2023-04-07T09:30:53.659Z,5.73
2023-04-07T09:33:56.898Z,5.60
2023-04-07T09:36:59.860Z,5.58
2023-04-07T09:40:02.732Z,5.56
2023-04-07T09:43:06.232Z,5.55
2023-04-07T09:46:14.866Z,5.58
2023-04-07T09:49:18.062Z,5.50
2023-04-07T09:52:46.582Z,5.47
2023-04-07T09:55:50.093Z,5.37
2023-04-07T09:58:53.313Z,5.36
2023-04-07T10:01:57.094Z,5.38
2023-04-07T10:05:00.213Z,5.45
2023-04-07T10:08:03.516Z,5.53
2023-04-07T10:11:10.681Z,5.47
2023-04-07T10:14:13.389Z,5.38
2023-04-07T10:17:19.340Z,5.38
2023-04-07T10:20:23.238Z,5.32
2023-04-07T10:23:37.611Z,5.28
2023-04-07T10:26:41.835Z,5.35
2023-04-07T10:29:49.139Z,5.39
2023-04-07T10:33:01.320Z,5.44
2023-04-07T10:36:06.190Z,5.38
2023-04-07T10:39:08.778Z,5.32
2023-04-07T10:42:36.275Z,5.36
2023-04-07T10:45:59.513Z,5.38
2023-04-07T10:49:09.979Z,5.36
2023-04-07T10:52:12.670Z,5.35
2023-04-07T10:55:33.417Z,5.28
2023-04-07T10:58:36.024Z,5.12
2023-04-07T11:01:38.682Z,5.16
2023-04-07T11:04:43.560Z,5.23
2023-04-07T11:07:50.172Z,5.22
2023-04-07T11:10:52.787Z,5.23
2023-04-07T11:13:55.332Z,5.28
2023-04-07T11:16:59.268Z,5.35
2023-04-07T11:20:02.032Z,5.43
2023-04-07T11:23:04.576Z,5.40
2023-04-07T11:26:09.446Z,5.36
2023-04-07T11:29:12.821Z,5.37
2023-04-07T11:32:15.725Z,5.37
2023-04-07T11:35:18.474Z,5.33
2023-04-07T11:38:22.272Z,5.35
2023-04-07T11:41:30.746Z,5.48
2023-04-07T11:44:33.398Z,5.59
2023-04-07T11:47:37.984Z,5.62
2023-04-07T11:50:42.765Z,5.54
2023-04-07T11:53:47.550Z,5.49
2023-04-07T11:56:51.969Z,5.33
2023-04-07T12:00:08.825Z,5.20
2023-04-07T12:03:14.636Z,5.05
2023-04-07T12:06:41.494Z,5.11
2023-04-07T12:09:55.563Z,5.12
2023-04-07T12:12:59.524Z,5.21
2023-04-07T12:16:02.743Z,5.19
2023-04-07T12:19:10.773Z,4.90
2023-04-07T12:22:13.307Z,4.72
2023-04-07T12:25:19.788Z,4.83
2023-04-07T12:28:22.361Z,4.95
2023-04-07T12:31:25.621Z,4.99
2023-04-07T12:34:28.273Z,4.94
2023-04-07T12:37:31.819Z,4.94
2023-04-07T12:40:35.236Z,4.89
2023-04-07T12:43:37.931Z,4.92
2023-04-07T12:46:40.667Z,5.10
2023-04-07T12:49:43.286Z,5.18
2023-04-07T12:52:47.406Z,5.15
2023-04-07T12:55:50.612Z,5.17
2023-04-07T12:58:53.576Z,5.14
2023-04-07T13:01:56.417Z,5.18
2023-04-07T13:04:59.196Z,5.22
2023-04-07T13:08:01.925Z,5.30
2023-04-07T13:11:04.825Z,5.27
2023-04-07T13:14:07.730Z,5.27
2023-04-07T13:17:12.560Z,5.26
2023-04-07T13:20:19.617Z,5.19
2023-04-07T13:23:23.283Z,5.10
2023-04-07T13:26:29.523Z,5.08
2023-04-07T13:29:32.418Z,5.01
2023-04-07T13:32:54.366Z,5.06
2023-04-07T13:35:57.281Z,5.20
2023-04-07T13:39:00.098Z,5.37
2023-04-07T13:42:06.957Z,5.36
2023-04-07T13:45:09.855Z,5.23
2023-04-07T13:48:12.537Z,5.20
2023-04-07T13:51:15.558Z,5.24
2023-04-07T13:54:18.775Z,5.27
2023-04-07T13:57:21.494Z,5.29
2023-04-07T14:00:24.297Z,5.30
2023-04-07T14:03:29.021Z,5.26
2023-04-07T14:06:31.809Z,5.20
2023-04-07T14:09:34.379Z,5.19
2023-04-07T14:12:37.159Z,5.16
2023-04-07T14:15:39.849Z,5.05
2023-04-07T14:18:43.045Z,5.11
2023-04-07T14:21:45.942Z,5.08
2023-04-07T14:24:48.717Z,5.04
2023-04-07T14:27:52.759Z,4.88
2023-04-07T14:30:55.714Z,4.83
2023-04-07T14:33:58.613Z,4.86
2023-04-07T14:37:01.580Z,4.81
2023-04-07T14:40:06.104Z,4.77
2023-04-07T14:43:10.309Z,4.67
2023-04-07T14:46:14.933Z,4.74
2023-04-07T14:49:36.039Z,4.81
2023-04-07T14:52:38.689Z,4.74
2023-04-07T14:55:42.512Z,4.79
2023-04-07T14:58:45.219Z,4.85
2023-04-07T15:02:05.150Z,4.90
2023-04-07T15:05:08.590Z,5.01
2023-04-07T15:08:11.536Z,5.02
2023-04-07T15:11:14.183Z,5.00
2023-04-07T15:14:16.927Z,4.91
2023-04-07T15:17:23.517Z,4.96
2023-04-07T15:20:30.423Z,4.91
2023-04-07T15:23:33.518Z,4.79
2023-04-07T15:26:36.154Z,4.72
2023-04-07T15:29:38.886Z,4.69
2023-04-07T15:32:41.605Z,4.68
2023-04-07T15:35:44.898Z,4.77
2023-04-07T15:38:47.617Z,4.85
2023-04-07T15:41:50.190Z,4.90
2023-04-07T15:44:52.793Z,4.93
2023-04-07T15:47:55.660Z,4.92
2023-04-07T15:50:58.349Z,4.96
2023-04-07T15:54:01.028Z,5.01
2023-04-07T15:57:03.816Z,5.03
2023-04-07T16:00:07.220Z,5.03
2023-04-07T16:03:10.099Z,5.03
2023-04-07T16:06:13.987Z,5.07
2023-04-07T16:09:17.633Z,5.13
2023-04-07T16:12:22.539Z,5.18
2023-04-07T16:15:36.846Z,5.23
2023-04-07T16:18:43.052Z,5.23
2023-04-07T16:21:45.755Z,5.18
2023-04-07T16:24:48.346Z,5.19
2023-04-07T16:27:53.033Z,5.26
2023-04-07T16:30:55.803Z,5.30
2023-04-07T16:33:58.422Z,5.30
2023-04-07T16:37:01.029Z,5.20
2023-04-07T16:40:04.849Z,5.09
2023-04-07T16:43:09.251Z,5.03
2023-04-07T16:46:11.933Z,5.06
2023-04-07T16:49:14.608Z,5.10
2023-04-07T16:52:18.859Z,5.13
2023-04-07T16:55:23.687Z,5.16
2023-04-07T16:58:26.407Z,5.16
2023-04-07T17:01:30.191Z,5.19
2023-04-07T17:04:33.469Z,5.25
2023-04-07T17:07:36.296Z,5.27
2023-04-07T17:10:38.865Z,5.29
2023-04-07T17:13:41.863Z,5.28
2023-04-07T17:16:44.443Z,5.22
2023-04-07T17:19:47.075Z,5.19
2023-04-07T17:22:50.093Z,5.15
2023-04-07T17:25:52.959Z,5.14
2023-04-07T17:28:55.578Z,5.15
2023-04-07T17:31:58.393Z,5.10
2023-04-07T17:35:01.480Z,5.03
2023-04-07T17:38:04.105Z,5.02
2023-04-07T17:41:07.632Z,5.02
2023-04-07T17:44:10.561Z,4.91
2023-04-07T17:47:13.443Z,4.81
2023-04-07T17:50:16.530Z,4.76
2023-04-07T17:53:19.749Z,4.71
2023-04-07T17:56:22.358Z,4.62
2023-04-07T17:59:25.034Z,4.65
2023-04-07T18:02:27.866Z,4.79
2023-04-07T18:05:32.072Z,4.77
2023-04-07T18:08:34.795Z,4.74
2023-04-07T18:11:37.722Z,4.73
2023-04-07T18:14:40.768Z,4.64
2023-04-07T18:17:43.809Z,4.62
2023-04-07T18:20:46.778Z,4.60
2023-04-07T18:23:50.727Z,4.58
2023-04-07T18:26:54.071Z,4.54
2023-04-07T18:29:56.986Z,4.53
2023-04-07T18:33:00.493Z,4.47
2023-04-07T18:36:07.462Z,4.46
2023-04-07T18:39:10.885Z,4.53
2023-04-07T18:42:14.379Z,4.51
2023-04-07T18:45:17.684Z,4.53
2023-04-07T18:48:21.736Z,4.52
2023-04-07T18:51:24.385Z,4.54
2023-04-07T18:54:28.293Z,4.57
2023-04-07T18:57:30.869Z,4.56
2023-04-07T19:00:34.145Z,4.56
2023-04-07T19:03:37.326Z,4.58
2023-04-07T19:06:40.768Z,4.53
2023-04-07T19:09:43.769Z,4.52
2023-04-07T19:12:46.445Z,4.51
2023-04-07T19:15:50.837Z,4.53
2023-04-07T19:18:53.974Z,4.60
2023-04-07T19:21:56.583Z,4.62
2023-04-07T19:24:59.249Z,4.61
2023-04-07T19:28:03.251Z,4.64
2023-04-07T19:31:06.667Z,4.63
2023-04-07T19:34:09.252Z,4.67
2023-04-07T19:37:12.102Z,4.67
2023-04-07T19:40:14.709Z,4.63
2023-04-07T19:43:17.755Z,4.60
2023-04-07T19:46:20.828Z,4.53
2023-04-07T19:49:23.838Z,4.53
2023-04-07T19:52:26.687Z,4.51
2023-04-07T19:55:30.609Z,4.53
2023-04-07T19:58:34.611Z,4.67
2023-04-07T20:01:37.373Z,4.65
2023-04-07T20:04:40.439Z,4.63
2023-04-07T20:07:43.105Z,4.61
2023-04-07T20:10:45.692Z,4.63
2023-04-07T20:13:49.242Z,4.62
2023-04-07T20:16:53.935Z,4.58
2023-04-07T20:19:56.512Z,4.57
2023-04-07T20:22:59.040Z,4.60
2023-04-07T20:26:02.513Z,4.61
2023-04-07T20:29:05.538Z,4.52
2023-04-07T20:32:08.086Z,4.49
2023-04-07T20:35:12.074Z,4.53
2023-04-07T20:38:14.795Z,4.52
2023-04-07T20:41:17.393Z,4.48
2023-04-07T20:44:20.082Z,4.53
2023-04-07T20:47:23.023Z,4.56
2023-04-07T20:50:25.948Z,4.60
2023-04-07T20:53:28.509Z,4.59
2023-04-07T20:56:31.829Z,4.66
2023-04-07T20:59:34.451Z,4.66
2023-04-07T21:02:37.877Z,4.62
2023-04-07T21:05:41.116Z,4.60
2023-04-07T21:08:43.692Z,4.62
2023-04-07T21:11:46.508Z,4.63
2023-04-07T21:14:49.089Z,4.61
2023-04-07T21:17:51.727Z,4.65
2023-04-07T21:20:57.430Z,4.71
2023-04-07T21:24:00.067Z,4.74
2023-04-07T21:27:02.723Z,4.74
2023-04-07T21:30:06.835Z,4.79
2023-04-07T21:33:09.923Z,4.87
2023-04-07T21:36:13.250Z,4.91
2023-04-07T21:39:15.867Z,4.92
2023-04-07T21:42:18.384Z,4.98
2023-04-07T21:45:21.050Z,5.05
2023-04-07T21:48:23.750Z,5.10
2023-04-07T21:51:27.393Z,5.08
2023-04-07T21:54:29.985Z,5.04
2023-04-07T21:57:32.517Z,5.07
2023-04-07T22:00:36.451Z,5.05
2023-04-07T22:03:40.003Z,5.03
2023-04-07T22:06:42.797Z,5.04
2023-04-07T22:09:46.100Z,5.08
2023-04-07T22:12:48.675Z,5.08
2023-04-07T22:15:51.387Z,5.03
2023-04-07T22:18:53.983Z,5.03
2023-04-07T22:21:56.533Z,5.01
2023-04-07T22:24:59.144Z,4.98
2023-04-07T22:28:01.688Z,4.99
2023-04-07T22:31:04.524Z,5.05
2023-04-07T22:34:09.558Z,5.15
2023-04-07T22:37:12.697Z,5.22
2023-04-07T22:40:15.487Z,5.22
2023-04-07T22:43:18.100Z,5.19
2023-04-07T22:46:20.784Z,5.25
2023-04-07T22:49:26.544Z,5.29
2023-04-07T22:52:29.193Z,5.32
2023-04-07T22:55:31.932Z,5.37
2023-04-07T22:58:34.634Z,5.42
2023-04-07T23:01:37.307Z,5.45
2023-04-07T23:04:48.900Z,5.45
2023-04-07T23:07:53.481Z,5.51
2023-04-07T23:10:56.081Z,5.60
2023-04-07T23:13:58.592Z,5.66
2023-04-07T23:17:01.298Z,5.68
2023-04-07T23:20:04.103Z,5.70
2023-04-07T23:23:07.125Z,5.70
2023-04-07T23:26:09.644Z,5.73
2023-04-07T23:29:12.384Z,5.71
2023-04-07T23:32:14.979Z,5.71
2023-04-07T23:35:18.060Z,5.73
2023-04-07T23:38:21.058Z,5.74
2023-04-07T23:41:23.897Z,5.80
2023-04-07T23:44:26.523Z,5.84
2023-04-07T23:47:29.089Z,5.89
2023-04-07T23:50:31.691Z,5.86
2023-04-07T23:53:34.280Z,5.85
2023-04-07T23:56:37.265Z,5.88
2023-04-07T23:59:39.869Z,5.91
